Brackett, Wisconsin
Current Conditions -  °F | °C
As of 1:56 AM on Friday 24 Oct 2014 (Local Time) from KEAU Reporting Station
Haze Haze  
Wind Chill: 47°   Ceiling: 200
Heat Index: 49°   Visibility: 1mi
Dew Point: 48°   Wind: 6mph
Humidity: 97%   Direction: 180°S
Pressure: 30.01"   Gusts: NA
Location:  44.7441°N, 91.2945°W
Report Text: KEAU 240656Z AUTO 18005KT 1SM BR OVC002 09/09 A3001 RMK AO2 SLP167 T00940089
Loading
Personal Weather Stations






























Interactive Weather Map New forecast layout! Learn more

10-Day Weather Forecast

Advertisements
Track Severe Weather on mobile